sensor_id;sensor_type;location;lat;lon;timestamp;P1;durP1;ratioP1;P2;durP2;ratioP2
45382;SDS011;42455;51.660;5.824;2022-08-26T00:05:02;20.0;;;18.0;;
45382;SDS011;42455;51.660;5.824;2022-08-26T00:10:09;17.0;;;15.0;;
45382;SDS011;42455;51.660;5.824;2022-08-26T00:15:15;17.0;;;15.0;;
45382;SDS011;42455;51.660;5.824;2022-08-26T00:25:27;15.0;;;13.5;;
45382;SDS011;42455;51.660;5.824;2022-08-26T00:30:33;15.0;;;13.0;;
45382;SDS011;42455;51.660;5.824;2022-08-26T00:35:39;14.5;;;13.0;;
45382;SDS011;42455;51.660;5.824;2022-08-26T00:40:46;13.5;;;12.0;;
45382;SDS011;42455;51.660;5.824;2022-08-26T00:45:56;14.0;;;12.0;;
45382;SDS011;42455;51.660;5.824;2022-08-26T00:50:59;13.0;;;11.0;;
45382;SDS011;42455;51.660;5.824;2022-08-26T00:56:05;12.0;;;10.0;;
45382;SDS011;42455;51.660;5.824;2022-08-26T01:01:09;12.0;;;9.0;;
45382;SDS011;42455;51.660;5.824;2022-08-26T01:06:15;10.0;;;8.0;;
45382;SDS011;42455;51.660;5.824;2022-08-26T01:11:20;9.0;;;7.0;;
45382;SDS011;42455;51.660;5.824;2022-08-26T01:16:27;9.0;;;7.0;;
45382;SDS011;42455;51.660;5.824;2022-08-26T01:21:34;7.5;;;6.0;;
45382;SDS011;42455;51.660;5.824;2022-08-26T01:26:40;9.0;;;7.0;;
45382;SDS011;42455;51.660;5.824;2022-08-26T01:31:47;9.0;;;7.0;;
45382;SDS011;42455;51.660;5.824;2022-08-26T01:36:53;7.0;;;6.5;;
45382;SDS011;42455;51.660;5.824;2022-08-26T01:41:58;7.0;;;6.0;;
45382;SDS011;42455;51.660;5.824;2022-08-26T01:47:04;9.0;;;6.0;;
45382;SDS011;42455;51.660;5.824;2022-08-26T01:52:10;7.0;;;6.0;;
45382;SDS011;42455;51.660;5.824;2022-08-26T01:57:16;7.0;;;6.0;;
45382;SDS011;42455;51.660;5.824;2022-08-26T02:02:23;6.0;;;6.0;;
45382;SDS011;42455;51.660;5.824;2022-08-26T02:07:28;7.5;;;6.0;;
45382;SDS011;42455;51.660;5.824;2022-08-26T02:12:34;7.0;;;6.0;;
45382;SDS011;42455;51.660;5.824;2022-08-26T02:22:46;7.0;;;6.0;;
45382;SDS011;42455;51.660;5.824;2022-08-26T02:27:53;8.0;;;7.0;;
45382;SDS011;42455;51.660;5.824;2022-08-26T02:32:59;8.0;;;7.0;;
45382;SDS011;42455;51.660;5.824;2022-08-26T02:38:08;8.0;;;7.0;;
45382;SDS011;42455;51.660;5.824;2022-08-26T02:43:11;8.0;;;7.0;;
45382;SDS011;42455;51.660;5.824;2022-08-26T02:48:18;9.0;;;7.0;;
45382;SDS011;42455;51.660;5.824;2022-08-26T02:53:24;8.0;;;7.0;;
45382;SDS011;42455;51.660;5.824;2022-08-26T02:58:30;7.0;;;6.0;;
45382;SDS011;42455;51.660;5.824;2022-08-26T03:03:35;7.0;;;6.0;;
45382;SDS011;42455;51.660;5.824;2022-08-26T03:08:41;8.0;;;6.0;;
45382;SDS011;42455;51.660;5.824;2022-08-26T03:13:47;7.0;;;5.0;;
45382;SDS011;42455;51.660;5.824;2022-08-26T03:18:53;7.0;;;5.0;;
45382;SDS011;42455;51.660;5.824;2022-08-26T03:23:59;6.0;;;4.0;;
45382;SDS011;42455;51.660;5.824;2022-08-26T03:29:05;7.0;;;5.0;;
45382;SDS011;42455;51.660;5.824;2022-08-26T03:34:11;5.0;;;4.0;;
45382;SDS011;42455;51.660;5.824;2022-08-26T03:39:18;6.0;;;4.0;;
45382;SDS011;42455;51.660;5.824;2022-08-26T03:44:24;5.0;;;3.0;;
45382;SDS011;42455;51.660;5.824;2022-08-26T03:49:30;5.0;;;3.0;;
45382;SDS011;42455;51.660;5.824;2022-08-26T03:54:36;5.0;;;3.0;;
45382;SDS011;42455;51.660;5.824;2022-08-26T03:59:42;6.0;;;3.0;;
45382;SDS011;42455;51.660;5.824;2022-08-26T04:04:49;3.0;;;3.0;;
45382;SDS011;42455;51.660;5.824;2022-08-26T04:09:55;4.5;;;3.0;;
45382;SDS011;42455;51.660;5.824;2022-08-26T04:15:01;5.0;;;2.5;;
45382;SDS011;42455;51.660;5.824;2022-08-26T04:20:08;5.0;;;2.0;;
45382;SDS011;42455;51.660;5.824;2022-08-26T04:25:14;6.0;;;3.0;;
45382;SDS011;42455;51.660;5.824;2022-08-26T04:30:20;4.5;;;2.0;;
45382;SDS011;42455;51.660;5.824;2022-08-26T04:35:26;5.0;;;3.0;;
45382;SDS011;42455;51.660;5.824;2022-08-26T04:40:32;5.0;;;2.0;;
45382;SDS011;42455;51.660;5.824;2022-08-26T04:45:38;6.0;;;2.0;;
45382;SDS011;42455;51.660;5.824;2022-08-26T04:50:45;4.0;;;2.0;;
45382;SDS011;42455;51.660;5.824;2022-08-26T04:55:51;5.0;;;2.0;;
45382;SDS011;42455;51.660;5.824;2022-08-26T05:00:57;5.0;;;2.0;;
45382;SDS011;42455;51.660;5.824;2022-08-26T05:06:03;5.0;;;2.0;;
45382;SDS011;42455;51.660;5.824;2022-08-26T05:11:08;4.0;;;2.0;;
45382;SDS011;42455;51.660;5.824;2022-08-26T05:16:14;5.0;;;2.0;;
45382;SDS011;42455;51.660;5.824;2022-08-26T05:21:21;5.0;;;2.0;;
45382;SDS011;42455;51.660;5.824;2022-08-26T05:26:27;5.0;;;2.0;;
45382;SDS011;42455;51.660;5.824;2022-08-26T05:31:32;7.0;;;2.0;;
45382;SDS011;42455;51.660;5.824;2022-08-26T05:36:39;5.0;;;2.0;;
45382;SDS011;42455;51.660;5.824;2022-08-26T05:41:45;5.0;;;2.0;;
45382;SDS011;42455;51.660;5.824;2022-08-26T05:46:51;5.0;;;2.0;;
45382;SDS011;42455;51.660;5.824;2022-08-26T05:51:57;4.0;;;2.0;;
45382;SDS011;42455;51.660;5.824;2022-08-26T05:57:03;4.0;;;2.0;;
45382;SDS011;42455;51.660;5.824;2022-08-26T06:02:10;5.0;;;2.0;;
45382;SDS011;42455;51.660;5.824;2022-08-26T06:07:16;7.0;;;2.0;;
45382;SDS011;42455;51.660;5.824;2022-08-26T06:12:22;4.0;;;2.0;;
45382;SDS011;42455;51.660;5.824;2022-08-26T06:17:29;4.5;;;2.0;;
45382;SDS011;42455;51.660;5.824;2022-08-26T06:22:34;5.5;;;2.0;;
45382;SDS011;42455;51.660;5.824;2022-08-26T06:27:41;4.0;;;1.0;;
45382;SDS011;42455;51.660;5.824;2022-08-26T06:32:47;5.0;;;2.0;;
45382;SDS011;42455;51.660;5.824;2022-08-26T06:37:53;5.0;;;2.0;;
45382;SDS011;42455;51.660;5.824;2022-08-26T06:42:59;4.0;;;2.0;;
45382;SDS011;42455;51.660;5.824;2022-08-26T06:48:06;4.0;;;1.0;;
45382;SDS011;42455;51.660;5.824;2022-08-26T06:53:12;4.0;;;1.0;;
45382;SDS011;42455;51.660;5.824;2022-08-26T06:58:18;5.0;;;2.0;;
45382;SDS011;42455;51.660;5.824;2022-08-26T07:03:23;4.0;;;1.0;;
45382;SDS011;42455;51.660;5.824;2022-08-26T07:08:29;4.0;;;1.0;;
45382;SDS011;42455;51.660;5.824;2022-08-26T07:13:36;4.5;;;1.0;;
45382;SDS011;42455;51.660;5.824;2022-08-26T07:18:42;3.0;;;1.0;;
45382;SDS011;42455;51.660;5.824;2022-08-26T07:23:48;4.0;;;1.0;;
45382;SDS011;42455;51.660;5.824;2022-08-26T07:28:55;4.0;;;1.0;;
45382;SDS011;42455;51.660;5.824;2022-08-26T07:34:00;5.0;;;1.5;;
45382;SDS011;42455;51.660;5.824;2022-08-26T07:39:07;5.0;;;2.0;;
45382;SDS011;42455;51.660;5.824;2022-08-26T07:44:13;5.0;;;1.0;;
45382;SDS011;42455;51.660;5.824;2022-08-26T07:49:19;4.0;;;2.0;;
45382;SDS011;42455;51.660;5.824;2022-08-26T07:54:25;5.0;;;2.0;;
45382;SDS011;42455;51.660;5.824;2022-08-26T07:59:31;4.0;;;1.0;;
45382;SDS011;42455;51.660;5.824;2022-08-26T08:04:38;5.0;;;1.0;;
45382;SDS011;42455;51.660;5.824;2022-08-26T08:09:44;3.0;;;1.0;;
45382;SDS011;42455;51.660;5.824;2022-08-26T08:14:50;4.5;;;2.0;;
45382;SDS011;42455;51.660;5.824;2022-08-26T08:19:56;3.0;;;1.0;;
45382;SDS011;42455;51.660;5.824;2022-08-26T08:25:03;4.0;;;1.0;;
45382;SDS011;42455;51.660;5.824;2022-08-26T08:30:09;3.5;;;1.0;;
45382;SDS011;42455;51.660;5.824;2022-08-26T08:35:16;6.0;;;2.0;;
45382;SDS011;42455;51.660;5.824;2022-08-26T08:40:23;4.0;;;1.5;;
45382;SDS011;42455;51.660;5.824;2022-08-26T08:45:31;3.5;;;2.0;;
45382;SDS011;42455;51.660;5.824;2022-08-26T08:50:38;5.0;;;2.0;;
45382;SDS011;42455;51.660;5.824;2022-08-26T08:55:42;7.0;;;2.0;;
45382;SDS011;42455;51.660;5.824;2022-08-26T09:00:58;5.0;;;2.0;;
45382;SDS011;42455;51.660;5.824;2022-08-26T09:05:51;5.0;;;2.0;;
45382;SDS011;42455;51.660;5.824;2022-08-26T09:10:58;4.0;;;2.0;;
45382;SDS011;42455;51.660;5.824;2022-08-26T09:16:05;5.0;;;2.0;;
45382;SDS011;42455;51.660;5.824;2022-08-26T09:21:13;5.0;;;1.0;;
45382;SDS011;42455;51.660;5.824;2022-08-26T09:26:18;5.0;;;2.0;;
45382;SDS011;42455;51.660;5.824;2022-08-26T09:31:26;4.5;;;2.0;;
45382;SDS011;42455;51.660;5.824;2022-08-26T09:36:41;3.0;;;1.0;;
45382;SDS011;42455;51.660;5.824;2022-08-26T09:41:35;5.0;;;1.5;;
45382;SDS011;42455;51.660;5.824;2022-08-26T09:46:44;4.0;;;1.0;;
45382;SDS011;42455;51.660;5.824;2022-08-26T09:51:47;6.0;;;2.0;;
45382;SDS011;42455;51.660;5.824;2022-08-26T09:57:16;3.0;;;1.0;;
45382;SDS011;42455;51.660;5.824;2022-08-26T10:02:34;5.0;;;1.0;;
45382;SDS011;42455;51.660;5.824;2022-08-26T10:07:06;5.5;;;2.0;;
45382;SDS011;42455;51.660;5.824;2022-08-26T10:12:15;6.0;;;2.0;;
45382;SDS011;42455;51.660;5.824;2022-08-26T10:17:27;6.0;;;1.0;;
45382;SDS011;42455;51.660;5.824;2022-08-26T10:22:25;6.0;;;2.0;;
45382;SDS011;42455;51.660;5.824;2022-08-26T10:27:38;8.0;;;2.0;;
45382;SDS011;42455;51.660;5.824;2022-08-26T10:32:37;5.0;;;2.0;;
45382;SDS011;42455;51.660;5.824;2022-08-26T10:37:46;5.0;;;3.0;;
45382;SDS011;42455;51.660;5.824;2022-08-26T10:42:52;6.0;;;2.0;;
45382;SDS011;42455;51.660;5.824;2022-08-26T10:47:56;6.5;;;2.0;;
45382;SDS011;42455;51.660;5.824;2022-08-26T10:53:07;5.0;;;2.0;;
45382;SDS011;42455;51.660;5.824;2022-08-26T10:58:20;7.0;;;2.0;;
45382;SDS011;42455;51.660;5.824;2022-08-26T11:03:42;5.0;;;1.0;;
45382;SDS011;42455;51.660;5.824;2022-08-26T11:08:28;5.5;;;2.0;;
45382;SDS011;42455;51.660;5.824;2022-08-26T11:13:22;4.0;;;1.0;;
45382;SDS011;42455;51.660;5.824;2022-08-26T11:18:39;5.0;;;1.0;;
45382;SDS011;42455;51.660;5.824;2022-08-26T11:23:46;5.0;;;1.0;;
45382;SDS011;42455;51.660;5.824;2022-08-26T11:28:42;4.0;;;1.0;;
45382;SDS011;42455;51.660;5.824;2022-08-26T11:33:50;6.0;;;1.0;;
45382;SDS011;42455;51.660;5.824;2022-08-26T11:38:53;4.0;;;1.0;;
45382;SDS011;42455;51.660;5.824;2022-08-26T11:44:00;4.0;;;1.0;;
45382;SDS011;42455;51.660;5.824;2022-08-26T11:49:06;4.0;;;1.0;;
45382;SDS011;42455;51.660;5.824;2022-08-26T11:54:17;5.0;;;1.0;;
45382;SDS011;42455;51.660;5.824;2022-08-26T11:59:23;4.5;;;1.0;;
45382;SDS011;42455;51.660;5.824;2022-08-26T12:04:26;6.5;;;2.0;;
45382;SDS011;42455;51.660;5.824;2022-08-26T12:09:51;5.0;;;1.0;;
45382;SDS011;42455;51.660;5.824;2022-08-26T12:14:37;5.0;;;2.0;;
45382;SDS011;42455;51.660;5.824;2022-08-26T12:19:43;4.0;;;1.0;;
45382;SDS011;42455;51.660;5.824;2022-08-26T12:24:51;2.5;;;1.0;;
45382;SDS011;42455;51.660;5.824;2022-08-26T12:29:59;4.0;;;1.0;;
45382;SDS011;42455;51.660;5.824;2022-08-26T12:35:02;3.0;;;1.0;;
45382;SDS011;42455;51.660;5.824;2022-08-26T12:40:32;3.0;;;1.0;;
45382;SDS011;42455;51.660;5.824;2022-08-26T12:45:15;5.0;;;1.0;;
45382;SDS011;42455;51.660;5.824;2022-08-26T12:50:24;5.0;;;1.0;;
45382;SDS011;42455;51.660;5.824;2022-08-26T12:55:38;3.0;;;1.0;;
45382;SDS011;42455;51.660;5.824;2022-08-26T13:00:33;3.0;;;1.0;;
45382;SDS011;42455;51.660;5.824;2022-08-26T13:05:37;3.0;;;1.0;;
45382;SDS011;42455;51.660;5.824;2022-08-26T13:10:45;4.0;;;1.0;;
45382;SDS011;42455;51.660;5.824;2022-08-26T13:15:50;4.0;;;1.0;;
45382;SDS011;42455;51.660;5.824;2022-08-26T13:20:56;4.0;;;1.0;;
45382;SDS011;42455;51.660;5.824;2022-08-26T13:26:02;4.0;;;1.0;;
45382;SDS011;42455;51.660;5.824;2022-08-26T13:31:08;3.0;;;1.0;;
45382;SDS011;42455;51.660;5.824;2022-08-26T13:36:14;3.0;;;1.0;;
45382;SDS011;42455;51.660;5.824;2022-08-26T13:41:21;3.0;;;1.0;;
45382;SDS011;42455;51.660;5.824;2022-08-26T13:46:27;3.0;;;1.0;;
45382;SDS011;42455;51.660;5.824;2022-08-26T13:51:33;4.0;;;1.0;;
45382;SDS011;42455;51.660;5.824;2022-08-26T13:56:39;2.0;;;1.0;;
45382;SDS011;42455;51.660;5.824;2022-08-26T14:01:45;3.0;;;1.0;;
45382;SDS011;42455;51.660;5.824;2022-08-26T14:06:52;5.0;;;1.0;;
45382;SDS011;42455;51.660;5.824;2022-08-26T14:11:58;5.0;;;1.0;;
45382;SDS011;42455;51.660;5.824;2022-08-26T14:17:04;3.0;;;1.0;;
45382;SDS011;42455;51.660;5.824;2022-08-26T14:22:10;2.0;;;1.0;;
45382;SDS011;42455;51.660;5.824;2022-08-26T14:27:16;3.0;;;1.0;;
45382;SDS011;42455;51.660;5.824;2022-08-26T14:32:23;3.0;;;1.0;;
45382;SDS011;42455;51.660;5.824;2022-08-26T14:37:29;3.0;;;0.0;;
45382;SDS011;42455;51.660;5.824;2022-08-26T14:42:35;3.0;;;0.0;;
45382;SDS011;42455;51.660;5.824;2022-08-26T14:47:41;3.0;;;0.0;;
45382;SDS011;42455;51.660;5.824;2022-08-26T14:52:47;2.0;;;0.0;;
45382;SDS011;42455;51.660;5.824;2022-08-26T14:57:53;1.0;;;0.0;;
45382;SDS011;42455;51.660;5.824;2022-08-26T15:02:58;3.0;;;1.0;;
45382;SDS011;42455;51.660;5.824;2022-08-26T15:08:04;2.0;;;1.0;;
45382;SDS011;42455;51.660;5.824;2022-08-26T15:13:10;2.0;;;1.0;;
45382;SDS011;42455;51.660;5.824;2022-08-26T15:18:17;2.0;;;0.0;;
45382;SDS011;42455;51.660;5.824;2022-08-26T15:23:23;2.0;;;1.0;;
45382;SDS011;42455;51.660;5.824;2022-08-26T15:28:29;2.0;;;1.0;;
45382;SDS011;42455;51.660;5.824;2022-08-26T15:33:35;2.0;;;0.0;;
45382;SDS011;42455;51.660;5.824;2022-08-26T15:38:41;2.0;;;0.0;;
45382;SDS011;42455;51.660;5.824;2022-08-26T15:43:48;2.5;;;1.0;;
45382;SDS011;42455;51.660;5.824;2022-08-26T15:48:54;4.0;;;1.0;;
45382;SDS011;42455;51.660;5.824;2022-08-26T15:54:01;3.5;;;1.0;;
45382;SDS011;42455;51.660;5.824;2022-08-26T15:59:06;5.0;;;1.0;;
45382;SDS011;42455;51.660;5.824;2022-08-26T16:04:13;2.0;;;1.0;;
45382;SDS011;42455;51.660;5.824;2022-08-26T16:09:19;4.0;;;1.0;;
45382;SDS011;42455;51.660;5.824;2022-08-26T16:14:25;3.0;;;1.0;;
45382;SDS011;42455;51.660;5.824;2022-08-26T16:19:31;3.0;;;1.0;;
45382;SDS011;42455;51.660;5.824;2022-08-26T16:24:37;2.0;;;1.0;;
45382;SDS011;42455;51.660;5.824;2022-08-26T16:29:44;2.0;;;1.0;;
45382;SDS011;42455;51.660;5.824;2022-08-26T16:34:50;1.0;;;0.0;;
45382;SDS011;42455;51.660;5.824;2022-08-26T16:39:56;3.0;;;1.0;;
45382;SDS011;42455;51.660;5.824;2022-08-26T16:45:02;3.0;;;1.0;;
45382;SDS011;42455;51.660;5.824;2022-08-26T16:50:08;2.5;;;1.0;;
45382;SDS011;42455;51.660;5.824;2022-08-26T16:55:14;4.0;;;1.0;;
45382;SDS011;42455;51.660;5.824;2022-08-26T17:00:20;4.0;;;1.0;;
45382;SDS011;42455;51.660;5.824;2022-08-26T17:05:25;4.0;;;1.0;;
45382;SDS011;42455;51.660;5.824;2022-08-26T17:10:31;3.0;;;1.0;;
45382;SDS011;42455;51.660;5.824;2022-08-26T17:15:38;3.0;;;1.0;;
45382;SDS011;42455;51.660;5.824;2022-08-26T17:20:44;4.0;;;1.0;;
45382;SDS011;42455;51.660;5.824;2022-08-26T17:25:50;2.0;;;0.5;;
45382;SDS011;42455;51.660;5.824;2022-08-26T17:30:56;3.0;;;1.0;;
45382;SDS011;42455;51.660;5.824;2022-08-26T17:36:02;3.0;;;1.0;;
45382;SDS011;42455;51.660;5.824;2022-08-26T17:41:10;3.0;;;1.0;;
45382;SDS011;42455;51.660;5.824;2022-08-26T17:46:15;3.0;;;1.0;;
45382;SDS011;42455;51.660;5.824;2022-08-26T17:51:21;2.0;;;1.0;;
45382;SDS011;42455;51.660;5.824;2022-08-26T17:56:28;3.0;;;1.0;;
45382;SDS011;42455;51.660;5.824;2022-08-26T18:01:33;3.0;;;1.0;;
45382;SDS011;42455;51.660;5.824;2022-08-26T18:06:40;3.0;;;1.0;;
45382;SDS011;42455;51.660;5.824;2022-08-26T18:11:46;4.0;;;1.0;;
45382;SDS011;42455;51.660;5.824;2022-08-26T18:16:52;3.0;;;1.0;;
45382;SDS011;42455;51.660;5.824;2022-08-26T18:21:58;4.0;;;1.0;;
45382;SDS011;42455;51.660;5.824;2022-08-26T18:27:04;3.0;;;1.0;;
45382;SDS011;42455;51.660;5.824;2022-08-26T18:32:11;3.0;;;1.0;;
45382;SDS011;42455;51.660;5.824;2022-08-26T18:37:17;5.0;;;1.0;;
45382;SDS011;42455;51.660;5.824;2022-08-26T18:42:23;4.0;;;1.0;;
45382;SDS011;42455;51.660;5.824;2022-08-26T18:47:29;3.0;;;1.0;;
45382;SDS011;42455;51.660;5.824;2022-08-26T18:52:34;4.0;;;1.0;;
45382;SDS011;42455;51.660;5.824;2022-08-26T18:57:40;4.0;;;1.0;;
45382;SDS011;42455;51.660;5.824;2022-08-26T19:02:46;3.0;;;2.0;;
45382;SDS011;42455;51.660;5.824;2022-08-26T19:07:52;4.0;;;2.0;;
45382;SDS011;42455;51.660;5.824;2022-08-26T19:12:57;2.5;;;1.0;;
45382;SDS011;42455;51.660;5.824;2022-08-26T19:18:04;3.5;;;1.0;;
45382;SDS011;42455;51.660;5.824;2022-08-26T19:23:10;5.0;;;1.0;;
45382;SDS011;42455;51.660;5.824;2022-08-26T19:28:17;2.0;;;1.0;;
45382;SDS011;42455;51.660;5.824;2022-08-26T19:33:22;4.0;;;1.0;;
45382;SDS011;42455;51.660;5.824;2022-08-26T19:38:28;5.0;;;1.0;;
45382;SDS011;42455;51.660;5.824;2022-08-26T19:43:35;5.0;;;1.0;;
45382;SDS011;42455;51.660;5.824;2022-08-26T19:48:41;7.0;;;1.0;;
45382;SDS011;42455;51.660;5.824;2022-08-26T19:53:47;4.0;;;1.0;;
45382;SDS011;42455;51.660;5.824;2022-08-26T19:58:53;3.0;;;1.0;;
45382;SDS011;42455;51.660;5.824;2022-08-26T20:03:59;4.5;;;1.0;;
45382;SDS011;42455;51.660;5.824;2022-08-26T20:09:06;5.0;;;2.0;;
45382;SDS011;42455;51.660;5.824;2022-08-26T20:14:12;4.0;;;1.0;;
45382;SDS011;42455;51.660;5.824;2022-08-26T20:19:18;5.0;;;2.0;;
45382;SDS011;42455;51.660;5.824;2022-08-26T20:24:24;4.0;;;1.0;;
45382;SDS011;42455;51.660;5.824;2022-08-26T20:29:31;4.0;;;1.0;;
45382;SDS011;42455;51.660;5.824;2022-08-26T20:34:37;4.0;;;1.0;;
45382;SDS011;42455;51.660;5.824;2022-08-26T20:39:43;3.0;;;1.0;;
45382;SDS011;42455;51.660;5.824;2022-08-26T20:44:48;3.0;;;2.0;;
45382;SDS011;42455;51.660;5.824;2022-08-26T20:49:54;4.0;;;1.0;;
45382;SDS011;42455;51.660;5.824;2022-08-26T20:55:00;3.0;;;1.0;;
45382;SDS011;42455;51.660;5.824;2022-08-26T21:00:06;5.0;;;1.0;;
45382;SDS011;42455;51.660;5.824;2022-08-26T21:05:12;3.0;;;1.0;;
45382;SDS011;42455;51.660;5.824;2022-08-26T21:10:18;4.0;;;1.0;;
45382;SDS011;42455;51.660;5.824;2022-08-26T21:15:25;3.0;;;1.0;;
45382;SDS011;42455;51.660;5.824;2022-08-26T21:20:31;3.0;;;1.0;;
45382;SDS011;42455;51.660;5.824;2022-08-26T21:25:37;5.0;;;1.0;;
45382;SDS011;42455;51.660;5.824;2022-08-26T21:30:43;2.0;;;1.0;;
45382;SDS011;42455;51.660;5.824;2022-08-26T21:35:49;2.5;;;1.0;;
45382;SDS011;42455;51.660;5.824;2022-08-26T21:40:56;4.0;;;1.0;;
45382;SDS011;42455;51.660;5.824;2022-08-26T21:46:03;3.0;;;1.0;;
45382;SDS011;42455;51.660;5.824;2022-08-26T21:51:11;4.0;;;1.0;;
45382;SDS011;42455;51.660;5.824;2022-08-26T21:56:15;3.0;;;1.0;;
45382;SDS011;42455;51.660;5.824;2022-08-26T22:01:21;3.0;;;1.0;;
45382;SDS011;42455;51.660;5.824;2022-08-26T22:06:26;2.0;;;1.0;;
45382;SDS011;42455;51.660;5.824;2022-08-26T22:11:33;2.5;;;1.0;;
45382;SDS011;42455;51.660;5.824;2022-08-26T22:16:39;2.0;;;1.0;;
45382;SDS011;42455;51.660;5.824;2022-08-26T22:21:46;2.0;;;1.0;;
45382;SDS011;42455;51.660;5.824;2022-08-26T22:26:53;3.0;;;1.0;;
45382;SDS011;42455;51.660;5.824;2022-08-26T22:31:58;2.0;;;1.0;;
45382;SDS011;42455;51.660;5.824;2022-08-26T22:37:04;3.0;;;1.0;;
45382;SDS011;42455;51.660;5.824;2022-08-26T22:42:09;2.0;;;1.0;;
45382;SDS011;42455;51.660;5.824;2022-08-26T22:47:15;4.0;;;1.0;;
45382;SDS011;42455;51.660;5.824;2022-08-26T22:52:21;3.0;;;1.0;;
45382;SDS011;42455;51.660;5.824;2022-08-26T22:57:28;3.0;;;1.0;;
45382;SDS011;42455;51.660;5.824;2022-08-26T23:02:34;3.0;;;2.0;;
45382;SDS011;42455;51.660;5.824;2022-08-26T23:07:40;3.0;;;1.0;;
45382;SDS011;42455;51.660;5.824;2022-08-26T23:12:46;4.0;;;1.0;;
45382;SDS011;42455;51.660;5.824;2022-08-26T23:17:52;3.0;;;1.0;;
45382;SDS011;42455;51.660;5.824;2022-08-26T23:22:59;4.0;;;1.0;;
45382;SDS011;42455;51.660;5.824;2022-08-26T23:28:05;3.0;;;1.0;;
45382;SDS011;42455;51.660;5.824;2022-08-26T23:33:11;2.0;;;1.0;;
45382;SDS011;42455;51.660;5.824;2022-08-26T23:38:17;3.0;;;1.0;;
45382;SDS011;42455;51.660;5.824;2022-08-26T23:43:24;4.0;;;1.5;;
45382;SDS011;42455;51.660;5.824;2022-08-26T23:48:30;3.0;;;2.0;;
45382;SDS011;42455;51.660;5.824;2022-08-26T23:53:36;4.0;;;2.0;;
45382;SDS011;42455;51.660;5.824;2022-08-26T23:58:42;4.0;;;2.0;;
